createdAt,value
2018-12-12T00:01:03.238Z,0
2018-12-12T00:02:11.282Z,0
2018-12-12T00:03:19.326Z,0
2018-12-12T00:04:27.397Z,0
2018-12-12T00:05:35.402Z,0
2018-12-12T00:06:43.480Z,0
2018-12-12T00:07:51.544Z,0
2018-12-12T00:08:59.586Z,0
2018-12-12T00:10:07.637Z,0
2018-12-12T00:11:15.657Z,0
2018-12-12T00:12:23.744Z,0
2018-12-12T00:13:31.792Z,0
2018-12-12T00:14:39.843Z,0
2018-12-12T00:15:47.890Z,0
2018-12-12T00:16:55.938Z,0
2018-12-12T00:18:03.997Z,0
2018-12-12T00:19:12.035Z,0
2018-12-12T00:20:20.095Z,0
2018-12-12T00:21:28.138Z,0
2018-12-12T00:22:36.204Z,0
2018-12-12T00:23:44.251Z,0
2018-12-12T00:24:52.298Z,0
2018-12-12T00:26:00.349Z,0
2018-12-12T00:27:08.410Z,0
2018-12-12T00:28:16.450Z,0
2018-12-12T00:29:24.503Z,0
2018-12-12T00:30:32.538Z,0
2018-12-12T00:31:40.593Z,0
2018-12-12T00:32:48.666Z,0
2018-12-12T00:33:56.706Z,0
2018-12-12T00:35:04.767Z,0
2018-12-12T00:36:12.811Z,0
2018-12-12T00:37:20.853Z,0
2018-12-12T00:38:28.895Z,0
2018-12-12T00:39:36.956Z,0
2018-12-12T00:40:44.991Z,0
2018-12-12T00:41:53.055Z,0
2018-12-12T00:43:01.122Z,0
2018-12-12T00:44:09.153Z,0
2018-12-12T00:45:17.205Z,0
2018-12-12T00:46:25.243Z,0
2018-12-12T00:47:33.321Z,0
2018-12-12T00:48:41.361Z,0
2018-12-12T00:49:49.413Z,0
2018-12-12T00:50:57.473Z,0
2018-12-12T00:52:05.488Z,0
2018-12-12T00:53:13.597Z,0
2018-12-12T00:54:21.646Z,0
2018-12-12T00:55:29.665Z,0
2018-12-12T00:56:37.706Z,0
2018-12-12T00:57:45.746Z,0
2018-12-12T00:58:53.823Z,0
2018-12-12T01:00:01.866Z,0
2018-12-12T01:01:09.922Z,0
2018-12-12T01:02:17.961Z,0
2018-12-12T01:03:26.030Z,0
2018-12-12T01:04:34.070Z,0
2018-12-12T01:05:42.128Z,0
2018-12-12T01:06:50.179Z,0
2018-12-12T01:07:58.226Z,0
2018-12-12T01:09:06.272Z,0
2018-12-12T01:10:14.321Z,0
2018-12-12T01:11:22.373Z,0
2018-12-12T01:12:30.439Z,0
2018-12-12T01:13:38.485Z,0
2018-12-12T01:14:46.537Z,0
2018-12-12T01:15:54.587Z,0
2018-12-12T01:17:02.638Z,0
2018-12-12T01:18:10.683Z,0
2018-12-12T01:19:18.715Z,0
2018-12-12T01:20:26.788Z,0
2018-12-12T01:21:34.836Z,0
2018-12-12T01:22:42.890Z,0
2018-12-12T01:23:50.930Z,0
2018-12-12T01:24:58.991Z,0
2018-12-12T01:26:07.030Z,0
2018-12-12T01:27:15.064Z,0
2018-12-12T01:28:23.143Z,0
2018-12-12T01:29:31.199Z,0
2018-12-12T01:30:39.253Z,0
2018-12-12T01:31:47.305Z,0
2018-12-12T01:32:55.311Z,0
2018-12-12T01:34:03.398Z,0
2018-12-12T01:35:11.463Z,0
2018-12-12T01:36:19.504Z,0
2018-12-12T01:37:27.556Z,0
2018-12-12T01:38:35.572Z,0
2018-12-12T01:39:43.654Z,0
2018-12-12T01:40:51.706Z,0
2018-12-12T01:41:59.747Z,0
2018-12-12T01:43:07.806Z,0
2018-12-12T01:44:15.836Z,0
2018-12-12T01:45:23.899Z,0
2018-12-12T01:46:31.956Z,0
2018-12-12T01:47:40.004Z,0
2018-12-12T01:48:48.064Z,0
2018-12-12T01:49:56.096Z,0
2018-12-12T01:51:04.146Z,0
2018-12-12T01:52:12.199Z,0
2018-12-12T01:53:20.270Z,0
2018-12-12T01:54:28.302Z,0
2018-12-12T01:55:36.347Z,0
2018-12-12T01:56:44.422Z,0
2018-12-12T01:57:52.457Z,0
2018-12-12T01:59:00.522Z,0
2018-12-12T02:00:08.549Z,0
2018-12-12T02:01:16.606Z,0
2018-12-12T02:02:24.674Z,0
2018-12-12T02:03:32.727Z,0
2018-12-12T02:04:40.761Z,0
2018-12-12T02:05:48.811Z,0
2018-12-12T02:06:56.875Z,0
2018-12-12T02:08:04.899Z,0
2018-12-12T02:09:12.965Z,0
2018-12-12T02:10:21.015Z,0
2018-12-12T02:11:29.069Z,0
2018-12-12T02:12:37.119Z,0
2018-12-12T02:13:45.141Z,0
2018-12-12T02:14:53.218Z,0
2018-12-12T02:16:01.300Z,0
2018-12-12T02:17:09.308Z,0
2018-12-12T02:18:17.361Z,0
2018-12-12T02:19:25.400Z,0
2018-12-12T02:20:33.482Z,0
2018-12-12T02:21:41.521Z,0
2018-12-12T02:22:49.579Z,0
2018-12-12T02:23:57.622Z,0
2018-12-12T02:25:05.660Z,0
2018-12-12T02:26:13.736Z,0
2018-12-12T02:27:21.776Z,0
2018-12-12T02:28:29.837Z,0
2018-12-12T02:29:37.880Z,0
2018-12-12T02:30:45.925Z,0
2018-12-12T02:31:53.982Z,0
2018-12-12T02:33:02.031Z,0
2018-12-12T02:34:10.092Z,0
2018-12-12T02:35:18.152Z,0
2018-12-12T02:36:26.179Z,0
2018-12-12T02:37:34.236Z,0
2018-12-12T02:38:42.289Z,0
2018-12-12T02:39:50.381Z,0
2018-12-12T02:40:58.394Z,0
2018-12-12T02:42:06.429Z,0
2018-12-12T02:43:14.496Z,0
2018-12-12T02:44:22.542Z,0
2018-12-12T02:45:30.586Z,0
2018-12-12T02:46:38.628Z,0
2018-12-12T02:47:46.707Z,0
2018-12-12T02:48:54.739Z,0
2018-12-12T02:50:02.799Z,0
2018-12-12T02:51:10.834Z,0
2018-12-12T02:52:18.902Z,0
2018-12-12T02:53:26.948Z,0
2018-12-12T02:54:34.978Z,0
2018-12-12T02:55:43.030Z,0
2018-12-12T02:56:51.101Z,0
2018-12-12T02:57:59.165Z,0
2018-12-12T02:59:07.200Z,0
2018-12-12T03:00:15.220Z,0
2018-12-12T03:01:23.289Z,0
2018-12-12T03:02:31.348Z,0
2018-12-12T03:03:39.413Z,0
2018-12-12T03:04:47.447Z,0
2018-12-12T03:05:55.479Z,0
2018-12-12T03:07:03.555Z,0
2018-12-12T03:08:11.607Z,0
2018-12-12T03:09:19.652Z,0
2018-12-12T03:10:27.723Z,0
2018-12-12T03:11:35.762Z,0
2018-12-12T03:12:43.809Z,0
2018-12-12T03:13:51.853Z,0
2018-12-12T03:14:59.922Z,0
2018-12-12T03:16:07.958Z,0
2018-12-12T03:17:15.994Z,0
2018-12-12T03:18:24.063Z,0
2018-12-12T03:19:32.103Z,0
2018-12-12T03:20:40.146Z,0
2018-12-12T03:21:48.207Z,0
2018-12-12T03:22:56.260Z,0
2018-12-12T03:24:04.315Z,0
2018-12-12T03:25:12.383Z,0
2018-12-12T03:26:20.414Z,0
2018-12-12T03:27:28.449Z,0
2018-12-12T03:28:36.525Z,0
2018-12-12T03:29:44.553Z,0
2018-12-12T03:30:52.615Z,0
2018-12-12T03:32:00.668Z,0
2018-12-12T03:33:08.713Z,0
2018-12-12T03:34:16.754Z,0
2018-12-12T03:35:24.816Z,0
2018-12-12T03:36:32.866Z,0
2018-12-12T03:37:40.923Z,0
2018-12-12T03:38:48.963Z,0
2018-12-12T03:39:57.023Z,0
2018-12-12T03:41:05.182Z,0
2018-12-12T03:42:13.134Z,0
2018-12-12T03:43:21.182Z,0
2018-12-12T03:44:29.222Z,0
2018-12-12T03:45:37.270Z,0
2018-12-12T03:46:45.296Z,0
2018-12-12T03:47:53.370Z,0
2018-12-12T03:49:01.426Z,0
2018-12-12T03:50:09.494Z,0
2018-12-12T03:51:17.540Z,0
2018-12-12T03:52:25.557Z,0
2018-12-12T03:53:33.623Z,0
2018-12-12T03:54:41.678Z,0
2018-12-12T03:55:49.727Z,0
2018-12-12T03:56:57.775Z,0
2018-12-12T03:58:05.799Z,0
2018-12-12T03:59:13.884Z,0
2018-12-12T04:00:21.940Z,0
2018-12-12T04:01:29.963Z,0
2018-12-12T04:02:38.020Z,0
2018-12-12T04:03:46.069Z,0
2018-12-12T04:04:54.132Z,0
2018-12-12T04:06:02.208Z,0
2018-12-12T04:07:10.223Z,0
2018-12-12T04:08:18.271Z,0
2018-12-12T04:09:26.348Z,0
2018-12-12T04:10:34.384Z,0
2018-12-12T04:11:42.440Z,0
2018-12-12T04:12:50.488Z,0
2018-12-12T04:13:58.542Z,0
2018-12-12T04:15:06.583Z,0
2018-12-12T04:16:14.648Z,0
2018-12-12T04:17:22.692Z,0
2018-12-12T04:18:30.753Z,0
2018-12-12T04:19:38.788Z,0
2018-12-12T04:20:46.837Z,0
2018-12-12T04:21:54.868Z,0
2018-12-12T04:23:02.957Z,0
2018-12-12T04:24:10.994Z,0
2018-12-12T04:25:19.036Z,0
2018-12-12T04:26:27.084Z,0
2018-12-12T04:27:35.118Z,0
2018-12-12T04:28:43.190Z,0
2018-12-12T04:29:51.269Z,0
2018-12-12T04:30:59.308Z,0
2018-12-12T04:32:07.347Z,0
2018-12-12T04:33:15.372Z,0
2018-12-12T04:34:24.103Z,0
2018-12-12T04:35:31.506Z,0
2018-12-12T04:36:39.562Z,0
2018-12-12T04:37:47.597Z,0
2018-12-12T04:38:55.620Z,0
2018-12-12T04:40:03.704Z,0
2018-12-12T04:41:11.748Z,0
2018-12-12T04:42:19.811Z,0
2018-12-12T04:43:27.848Z,0
2018-12-12T04:44:35.890Z,0
2018-12-12T04:45:43.945Z,0
2018-12-12T04:46:51.997Z,0
2018-12-12T04:48:00.056Z,0
2018-12-12T04:49:08.102Z,0
2018-12-12T04:50:16.157Z,0
2018-12-12T04:51:24.194Z,0
2018-12-12T04:52:32.264Z,0
2018-12-12T04:53:40.338Z,0
2018-12-12T04:54:48.402Z,0
2018-12-12T04:55:56.401Z,0
2018-12-12T04:57:04.441Z,0
2018-12-12T04:58:12.508Z,0
2018-12-12T04:59:20.575Z,0
2018-12-12T05:00:28.613Z,0
2018-12-12T05:01:36.659Z,0
2018-12-12T05:02:44.709Z,0
2018-12-12T05:03:52.766Z,0
2018-12-12T05:05:00.823Z,0
2018-12-12T05:06:08.862Z,0
2018-12-12T05:07:16.907Z,0
2018-12-12T05:08:24.956Z,0
2018-12-12T05:09:33.018Z,0
2018-12-12T05:10:41.050Z,0
2018-12-12T05:11:49.112Z,0
2018-12-12T05:12:57.168Z,0
2018-12-12T05:14:05.187Z,0
2018-12-12T05:15:13.265Z,0
2018-12-12T05:16:21.306Z,0
2018-12-12T05:17:29.377Z,0
2018-12-12T05:18:37.414Z,0
2018-12-12T05:19:45.438Z,0
2018-12-12T05:20:53.522Z,0
2018-12-12T05:22:01.570Z,0
2018-12-12T05:23:09.620Z,0
2018-12-12T05:24:17.672Z,0
2018-12-12T05:25:25.694Z,0
2018-12-12T05:26:33.784Z,0
2018-12-12T05:27:41.815Z,0
2018-12-12T05:28:49.874Z,0
2018-12-12T05:29:57.915Z,0
2018-12-12T05:31:05.971Z,0
2018-12-12T05:32:14.090Z,0
2018-12-12T05:33:22.067Z,0
2018-12-12T05:34:30.126Z,0
2018-12-12T05:35:38.175Z,0
2018-12-12T05:36:46.217Z,0
2018-12-12T05:37:54.284Z,0
2018-12-12T05:39:02.325Z,0
2018-12-12T05:40:10.391Z,0
2018-12-12T05:41:18.431Z,0
2018-12-12T05:42:26.491Z,0
2018-12-12T05:43:34.536Z,0
2018-12-12T05:44:42.600Z,0
2018-12-12T05:45:51.182Z,0
2018-12-12T05:46:58.675Z,0
2018-12-12T05:48:06.738Z,0
2018-12-12T05:49:14.790Z,0
2018-12-12T05:50:22.837Z,0
2018-12-12T05:51:30.878Z,0
2018-12-12T05:52:38.926Z,0
2018-12-12T05:53:47.116Z,0
2018-12-12T05:54:55.004Z,0
2018-12-12T05:56:03.090Z,0
2018-12-12T05:57:11.132Z,0
2018-12-12T05:58:19.191Z,0
2018-12-12T05:59:29.400Z,0
2018-12-12T06:00:35.335Z,0
2018-12-12T06:01:43.341Z,0
2018-12-12T06:02:51.428Z,0
2018-12-12T06:03:59.471Z,0
2018-12-12T06:05:07.494Z,0
2018-12-12T06:06:16.096Z,0
2018-12-12T06:07:23.603Z,0
2018-12-12T06:08:31.637Z,0
2018-12-12T06:09:39.701Z,0
2018-12-12T06:10:47.750Z,0
2018-12-12T06:11:55.783Z,0
2018-12-12T06:13:03.854Z,0
2018-12-12T06:14:11.891Z,0
2018-12-12T06:15:20.358Z,0
2018-12-12T06:16:28.006Z,0
2018-12-12T06:17:36.664Z,0
2018-12-12T06:18:44.110Z,0
2018-12-12T06:19:52.155Z,0
2018-12-12T06:21:00.211Z,0
2018-12-12T06:22:08.261Z,0
2018-12-12T06:23:16.311Z,0
2018-12-12T06:24:24.366Z,0
2018-12-12T06:25:32.409Z,0
2018-12-12T06:26:40.458Z,0
2018-12-12T06:27:48.505Z,0
2018-12-12T06:28:56.549Z,0
2018-12-12T06:30:04.606Z,0
2018-12-12T06:31:12.665Z,0
2018-12-12T06:32:20.713Z,0
2018-12-12T06:33:28.749Z,0
2018-12-12T06:34:36.824Z,0
2018-12-12T06:35:44.847Z,0
2018-12-12T06:36:52.908Z,0
2018-12-12T06:38:00.961Z,0
2018-12-12T06:39:09.208Z,0
2018-12-12T06:40:17.066Z,0
2018-12-12T06:41:25.085Z,0
2018-12-12T06:42:33.161Z,0
2018-12-12T06:43:41.229Z,0
2018-12-12T06:44:49.273Z,0
2018-12-12T06:45:57.320Z,0
2018-12-12T06:47:05.794Z,0
2018-12-12T06:48:13.426Z,0
2018-12-12T06:49:21.466Z,0
2018-12-12T06:50:29.514Z,0
2018-12-12T06:51:37.565Z,0
2018-12-12T06:52:45.601Z,0
2018-12-12T06:53:53.668Z,0
2018-12-12T06:55:01.711Z,0
2018-12-12T06:56:09.779Z,0
2018-12-12T06:57:17.890Z,5
2018-12-12T06:58:25.855Z,5
2018-12-12T06:59:33.924Z,5
2018-12-12T07:00:41.973Z,5
2018-12-12T07:01:50.030Z,5
2018-12-12T07:02:58.063Z,5
2018-12-12T07:04:06.175Z,5
2018-12-12T07:05:14.180Z,10
2018-12-12T07:06:22.238Z,10
2018-12-12T07:07:30.683Z,10
2018-12-12T07:08:38.337Z,10
2018-12-12T07:09:46.869Z,10
2018-12-12T07:10:54.429Z,15
2018-12-12T07:12:02.475Z,15
2018-12-12T07:13:10.535Z,15
2018-12-12T07:14:18.578Z,15
2018-12-12T07:15:27.310Z,15
2018-12-12T07:16:35.271Z,20
2018-12-12T07:17:43.054Z,20
2018-12-12T07:18:50.829Z,20
2018-12-12T07:19:59.315Z,20
2018-12-12T07:21:07.503Z,25
2018-12-12T07:22:14.916Z,25
2018-12-12T07:23:22.985Z,25
2018-12-12T07:24:31.045Z,25
2018-12-12T07:25:39.086Z,30
2018-12-12T07:26:47.137Z,30
2018-12-12T07:27:55.170Z,30
2018-12-12T07:29:03.238Z,30
2018-12-12T07:30:11.301Z,35
2018-12-12T07:31:19.345Z,35
2018-12-12T07:32:27.792Z,35
2018-12-12T07:33:35.424Z,35
2018-12-12T07:34:43.873Z,35
2018-12-12T07:35:51.537Z,40
2018-12-12T07:36:59.742Z,40
2018-12-12T07:38:07.656Z,40
2018-12-12T07:39:18.003Z,45
2018-12-12T07:40:23.749Z,45
2018-12-12T07:41:31.794Z,45
2018-12-12T07:42:39.851Z,45
2018-12-12T07:43:47.926Z,50
2018-12-12T07:44:55.937Z,50
2018-12-12T07:46:03.997Z,50
2018-12-12T07:47:12.055Z,50
2018-12-12T07:48:20.095Z,50
2018-12-12T07:49:28.142Z,55
2018-12-12T07:50:36.189Z,55
2018-12-12T07:51:44.267Z,55
2018-12-12T07:52:52.296Z,55
2018-12-12T07:54:00.338Z,60
2018-12-12T07:55:08.403Z,60
2018-12-12T07:56:16.446Z,60
2018-12-12T07:57:24.511Z,60
2018-12-12T07:58:32.546Z,60
2018-12-12T07:59:40.594Z,65
2018-12-12T08:00:48.650Z,65
2018-12-12T08:01:56.703Z,65
2018-12-12T08:03:06.471Z,65
2018-12-12T08:04:12.791Z,65
2018-12-12T08:05:20.866Z,70
2018-12-12T08:06:28.901Z,70
2018-12-12T08:07:36.965Z,70
2018-12-12T08:08:44.977Z,70
2018-12-12T08:09:53.053Z,70
2018-12-12T08:11:01.112Z,85
2018-12-12T08:12:09.820Z,80
2018-12-12T08:13:17.215Z,75
2018-12-12T08:14:25.241Z,75
2018-12-12T08:15:34.605Z,75
2018-12-12T08:16:41.370Z,75
2018-12-12T08:17:49.416Z,80
2018-12-12T08:18:57.473Z,80
2018-12-12T08:20:05.484Z,80
2018-12-12T08:21:13.572Z,80
2018-12-12T08:22:21.623Z,85
2018-12-12T08:23:29.688Z,85
2018-12-12T08:24:37.707Z,85
2018-12-12T08:25:45.752Z,85
2018-12-12T08:26:53.858Z,85
2018-12-12T08:28:01.884Z,90
2018-12-12T08:29:09.923Z,95
2018-12-12T08:30:18.006Z,90
2018-12-12T08:31:26.059Z,110
2018-12-12T08:32:34.131Z,140
2018-12-12T08:33:42.131Z,120
2018-12-12T08:34:50.183Z,125
2018-12-12T08:35:58.251Z,150
2018-12-12T08:37:06.293Z,150
2018-12-12T08:38:14.340Z,155
2018-12-12T08:39:22.394Z,165
2018-12-12T08:40:30.458Z,155
2018-12-12T08:41:38.509Z,120
2018-12-12T08:42:46.543Z,120
2018-12-12T08:43:54.597Z,120
2018-12-12T08:45:02.664Z,105
2018-12-12T08:46:10.737Z,110
2018-12-12T08:47:18.761Z,140
2018-12-12T08:48:26.822Z,150
2018-12-12T08:49:34.845Z,120
2018-12-12T08:50:42.952Z,135
2018-12-12T08:51:50.974Z,165
2018-12-12T08:52:59.476Z,150
2018-12-12T08:54:07.072Z,155
2018-12-12T08:55:17.739Z,160
2018-12-12T08:56:23.200Z,190
2018-12-12T08:57:31.237Z,185
2018-12-12T08:58:39.306Z,180
2018-12-12T08:59:47.354Z,175
2018-12-12T09:00:55.390Z,180
2018-12-12T09:02:03.457Z,180
2018-12-12T09:03:17.360Z,180
2018-12-12T09:04:19.606Z,190
2018-12-12T09:05:27.623Z,195
2018-12-12T09:06:35.651Z,185
2018-12-12T09:07:44.032Z,185
2018-12-12T09:08:51.802Z,170
2018-12-12T09:09:59.833Z,140
2018-12-12T09:11:07.947Z,145
2018-12-12T09:12:15.941Z,150
2018-12-12T09:13:24.644Z,145
2018-12-12T09:14:32.064Z,140
2018-12-12T09:15:40.130Z,140
2018-12-12T09:16:48.159Z,145
2018-12-12T09:17:56.233Z,150
2018-12-12T09:19:04.282Z,160
2018-12-12T09:20:12.453Z,160
2018-12-12T09:21:20.382Z,155
2018-12-12T09:22:28.429Z,160
2018-12-12T09:23:36.581Z,165
2018-12-12T09:24:44.785Z,170
2018-12-12T09:25:52.672Z,170
2018-12-12T09:27:00.671Z,170
2018-12-12T09:28:08.706Z,175
2018-12-12T09:29:17.234Z,205
2018-12-12T09:30:24.999Z,195
2018-12-12T09:31:32.993Z,190
2018-12-12T09:32:40.932Z,190
2018-12-12T09:33:48.968Z,190
2018-12-12T09:34:57.024Z,185
2018-12-12T09:36:05.057Z,160
2018-12-12T09:37:13.136Z,165
2018-12-12T09:38:21.200Z,170
2018-12-12T09:39:29.366Z,175
2018-12-12T09:40:37.298Z,200
2018-12-12T09:41:45.419Z,215
2018-12-12T09:42:53.389Z,220
2018-12-12T09:44:01.879Z,215
2018-12-12T09:45:09.832Z,215
2018-12-12T09:46:17.691Z,220
2018-12-12T09:47:25.660Z,210
2018-12-12T09:48:33.940Z,205
2018-12-12T09:49:41.734Z,210
2018-12-12T09:50:50.011Z,210
2018-12-12T09:51:58.104Z,185
2018-12-12T09:53:06.055Z,185
2018-12-12T09:54:14.059Z,195
2018-12-12T09:55:22.174Z,185
2018-12-12T09:56:30.063Z,175
2018-12-12T09:57:38.112Z,170
2018-12-12T09:58:46.364Z,170
2018-12-12T09:59:54.213Z,175
2018-12-12T10:01:02.406Z,190
2018-12-12T10:02:10.332Z,195
2018-12-12T10:03:18.675Z,200
2018-12-12T10:04:26.512Z,200
2018-12-12T10:05:35.022Z,210
2018-12-12T10:06:42.851Z,215
2018-12-12T10:07:50.635Z,210
2018-12-12T10:08:59.363Z,210
2018-12-12T10:10:07.288Z,205
2018-12-12T10:13:40.589Z,175
2018-12-12T10:13:43.793Z,170
2018-12-12T10:14:38.940Z,165
2018-12-12T10:15:47.491Z,175
2018-12-12T10:16:55.237Z,170
2018-12-12T10:18:03.093Z,170
2018-12-12T10:19:11.226Z,180
2018-12-12T10:20:19.212Z,185
2018-12-12T10:21:27.707Z,200
2018-12-12T10:22:35.295Z,195
2018-12-12T10:23:43.362Z,190
2018-12-12T10:24:51.955Z,185
2018-12-12T10:25:59.565Z,185
2018-12-12T10:27:08.070Z,185
2018-12-12T10:28:16.035Z,190
2018-12-12T10:29:23.867Z,200
2018-12-12T10:30:31.852Z,220
2018-12-12T10:31:39.933Z,205
2018-12-12T10:32:47.835Z,210
2018-12-12T10:33:55.842Z,195
2018-12-12T10:35:03.928Z,210
2018-12-12T10:36:11.975Z,210
2018-12-12T10:37:20.028Z,205
2018-12-12T10:38:28.084Z,215
2018-12-12T10:39:36.157Z,210
2018-12-12T10:40:44.553Z,205
2018-12-12T10:41:52.256Z,220
2018-12-12T10:43:00.599Z,230
2018-12-12T10:44:08.401Z,230
2018-12-12T10:45:16.422Z,225
2018-12-12T10:46:24.883Z,230
2018-12-12T10:47:32.719Z,230
2018-12-12T10:48:40.765Z,230
2018-12-12T10:49:48.635Z,230
2018-12-12T10:50:56.747Z,240
2018-12-12T10:52:05.225Z,240
2018-12-12T10:53:12.928Z,240
2018-12-12T10:54:21.332Z,240
2018-12-12T10:55:28.913Z,230
2018-12-12T10:56:37.389Z,235
2018-12-12T10:57:45.014Z,230
2018-12-12T10:58:53.092Z,235
2018-12-12T11:00:01.142Z,240
2018-12-12T11:01:09.200Z,225
2018-12-12T11:02:17.279Z,215
2018-12-12T11:03:25.296Z,230
2018-12-12T11:04:33.851Z,230
2018-12-12T11:05:41.429Z,230
2018-12-12T11:06:49.777Z,225
2018-12-12T11:07:57.901Z,235
2018-12-12T11:09:05.574Z,240
2018-12-12T11:10:13.638Z,225
2018-12-12T11:11:22.071Z,215
2018-12-12T11:12:29.950Z,225
2018-12-12T11:13:37.806Z,225
2018-12-12T11:14:45.851Z,225
2018-12-12T11:15:53.939Z,210
2018-12-12T11:17:01.989Z,210
2018-12-12T11:18:10.037Z,210
2018-12-12T11:19:18.547Z,205
2018-12-12T11:20:26.230Z,220
2018-12-12T11:21:34.206Z,210
2018-12-12T11:22:42.675Z,205
2018-12-12T11:23:50.691Z,200
2018-12-12T11:24:58.846Z,205
2018-12-12T11:26:06.959Z,195
2018-12-12T11:27:14.494Z,195
2018-12-12T11:28:22.640Z,190
2018-12-12T11:29:30.674Z,190
2018-12-12T11:30:38.734Z,180
2018-12-12T11:31:46.738Z,190
2018-12-12T11:32:54.919Z,190
2018-12-12T11:34:03.145Z,210
2018-12-12T11:35:11.148Z,195
2018-12-12T11:36:19.088Z,185
2018-12-12T11:37:26.996Z,195
2018-12-12T11:38:35.041Z,205
2018-12-12T11:39:43.112Z,195
2018-12-12T11:40:51.178Z,200
2018-12-12T11:41:59.201Z,200
2018-12-12T11:43:07.315Z,195
2018-12-12T11:44:15.297Z,195
2018-12-12T11:45:23.401Z,200
2018-12-12T11:46:31.443Z,210
2018-12-12T11:47:39.511Z,225
2018-12-12T11:48:47.566Z,215
2018-12-12T11:49:55.598Z,205
2018-12-12T11:51:03.668Z,235
2018-12-12T11:52:11.729Z,210
2018-12-12T11:53:19.778Z,210
2018-12-12T11:54:27.835Z,205
2018-12-12T11:55:35.888Z,185
2018-12-12T11:56:43.963Z,190
2018-12-12T11:57:52.013Z,195
2018-12-12T11:59:00.065Z,155
2018-12-12T12:00:08.108Z,145
2018-12-12T12:01:16.186Z,140
2018-12-12T12:02:24.239Z,145
2018-12-12T12:03:32.305Z,150
2018-12-12T12:04:40.346Z,165
2018-12-12T12:05:48.404Z,155
2018-12-12T12:06:56.470Z,150
2018-12-12T12:08:04.523Z,125
2018-12-12T12:09:12.572Z,125
2018-12-12T12:10:20.880Z,115
2018-12-12T12:11:28.691Z,115
2018-12-12T12:12:36.755Z,120
2018-12-12T12:13:44.791Z,125
2018-12-12T12:14:54.517Z,120
2018-12-12T12:16:01.341Z,120
2018-12-12T12:17:08.958Z,125
2018-12-12T12:18:18.703Z,170
2018-12-12T12:19:25.153Z,150
2018-12-12T12:20:33.132Z,140
2018-12-12T12:21:41.675Z,135
2018-12-12T12:22:49.240Z,145
2018-12-12T12:23:57.315Z,155
2018-12-12T12:25:05.338Z,135
2018-12-12T12:26:13.726Z,125
2018-12-12T12:27:21.468Z,125
2018-12-12T12:28:29.535Z,125
2018-12-12T12:29:37.590Z,130
2018-12-12T12:30:45.625Z,155
2018-12-12T12:31:53.697Z,135
2018-12-12T12:33:02.029Z,135
2018-12-12T12:34:10.100Z,165
2018-12-12T12:35:18.117Z,150
2018-12-12T12:36:26.215Z,155
2018-12-12T12:37:33.986Z,145
2018-12-12T12:38:42.262Z,175
2018-12-12T12:39:50.367Z,170
2018-12-12T12:40:58.136Z,170
2018-12-12T12:42:06.196Z,155
2018-12-12T12:43:14.244Z,140
2018-12-12T12:44:22.590Z,155
2018-12-12T12:45:30.547Z,140
2018-12-12T12:46:38.511Z,145
2018-12-12T12:47:46.476Z,120
2018-12-12T12:48:54.589Z,130
2018-12-12T12:50:02.616Z,170
2018-12-12T12:51:10.631Z,125
2018-12-12T12:52:18.745Z,125
2018-12-12T12:53:26.731Z,125
2018-12-12T12:54:34.807Z,150
2018-12-12T12:55:42.850Z,120
2018-12-12T12:56:50.901Z,110
2018-12-12T12:57:58.969Z,115
2018-12-12T12:59:07.108Z,110
2018-12-12T13:00:15.054Z,120
2018-12-12T13:01:23.128Z,115
2018-12-12T13:02:31.179Z,120
2018-12-12T13:03:39.240Z,125
2018-12-12T13:04:47.306Z,110
2018-12-12T13:05:55.320Z,110
2018-12-12T13:07:03.416Z,105
2018-12-12T13:08:11.464Z,105
2018-12-12T13:09:19.508Z,105
2018-12-12T13:10:27.563Z,105
2018-12-12T13:11:35.589Z,100
2018-12-12T13:12:43.680Z,100
2018-12-12T13:13:51.762Z,105
2018-12-12T13:14:59.791Z,105
2018-12-12T13:16:07.830Z,100
2018-12-12T13:17:15.867Z,110
2018-12-12T13:18:23.958Z,105
2018-12-12T13:19:32.005Z,100
2018-12-12T13:20:40.051Z,105
2018-12-12T13:21:48.119Z,100
2018-12-12T13:22:56.175Z,100
2018-12-12T13:24:04.225Z,95
2018-12-12T13:25:12.276Z,100
2018-12-12T13:26:20.336Z,90
2018-12-12T13:27:28.390Z,95
2018-12-12T13:28:36.449Z,95
2018-12-12T13:29:44.500Z,100
2018-12-12T13:30:52.558Z,100
2018-12-12T13:32:00.617Z,100
2018-12-12T13:33:08.663Z,100
2018-12-12T13:34:16.775Z,100
2018-12-12T13:35:24.770Z,100
2018-12-12T13:36:32.823Z,95
2018-12-12T13:37:40.877Z,95
2018-12-12T13:38:48.948Z,95
2018-12-12T13:39:56.986Z,95
2018-12-12T13:41:05.021Z,95
2018-12-12T13:42:13.101Z,95
2018-12-12T13:43:21.158Z,95
2018-12-12T13:44:29.218Z,95
2018-12-12T13:45:37.264Z,95
2018-12-12T13:46:45.298Z,95
2018-12-12T13:47:53.381Z,95
2018-12-12T13:49:01.427Z,90
2018-12-12T13:50:09.487Z,90
2018-12-12T13:51:17.531Z,90
2018-12-12T13:52:25.562Z,90
2018-12-12T13:53:33.633Z,90
2018-12-12T13:54:41.701Z,90
2018-12-12T13:55:49.766Z,90
2018-12-12T13:56:57.815Z,90
2018-12-12T13:58:05.843Z,90
2018-12-12T13:59:13.927Z,90
2018-12-12T14:00:21.961Z,85
2018-12-12T14:01:30.028Z,85
2018-12-12T14:02:38.101Z,85
2018-12-12T14:03:46.131Z,85
2018-12-12T14:04:54.187Z,85
2018-12-12T14:06:02.269Z,85
2018-12-12T14:07:10.289Z,85
2018-12-12T14:08:18.349Z,85
2018-12-12T14:09:26.461Z,80
2018-12-12T14:10:34.855Z,80
2018-12-12T14:11:42.532Z,80
2018-12-12T14:12:50.587Z,80
2018-12-12T14:13:58.619Z,80
2018-12-12T14:15:06.683Z,80
2018-12-12T14:16:14.733Z,80
2018-12-12T14:17:22.801Z,80
2018-12-12T14:18:30.839Z,75
2018-12-12T14:19:38.892Z,75
2018-12-12T14:20:46.941Z,75
2018-12-12T14:21:55.022Z,75
2018-12-12T14:23:03.068Z,75
2018-12-12T14:24:11.107Z,75
2018-12-12T14:25:19.181Z,75
2018-12-12T14:26:27.238Z,70
2018-12-12T14:27:38.829Z,70
2018-12-12T14:28:43.325Z,70
2018-12-12T14:29:51.404Z,70
2018-12-12T14:30:59.437Z,70
2018-12-12T14:32:07.498Z,65
2018-12-12T14:33:15.523Z,65
2018-12-12T14:34:29.054Z,65
2018-12-12T14:35:31.663Z,65
2018-12-12T14:36:39.703Z,65
2018-12-12T14:37:47.755Z,60
2018-12-12T14:38:55.792Z,60
2018-12-12T14:40:03.867Z,60
2018-12-12T14:41:11.933Z,60
2018-12-12T14:42:19.971Z,55
2018-12-12T14:43:28.027Z,55
2018-12-12T14:44:36.085Z,55
2018-12-12T14:45:44.139Z,50
2018-12-12T14:46:52.201Z,50
2018-12-12T14:48:00.248Z,50
2018-12-12T14:49:08.312Z,50
2018-12-12T14:50:16.346Z,45
2018-12-12T14:51:24.396Z,45
2018-12-12T14:52:32.462Z,45
2018-12-12T14:53:40.521Z,45
2018-12-12T14:54:48.566Z,45
2018-12-12T14:55:56.632Z,40
2018-12-12T14:57:04.682Z,40
2018-12-12T14:58:12.760Z,40
2018-12-12T14:59:20.793Z,40
2018-12-12T15:00:28.831Z,35
2018-12-12T15:01:36.901Z,35
2018-12-12T15:02:44.935Z,35
2018-12-12T15:03:53.001Z,35
2018-12-12T15:05:01.061Z,30
2018-12-12T15:06:09.103Z,30
2018-12-12T15:07:17.172Z,30
2018-12-12T15:08:25.192Z,30
2018-12-12T15:09:33.280Z,30
2018-12-12T15:10:41.321Z,25
2018-12-12T15:11:49.405Z,25
2018-12-12T15:12:57.443Z,25
2018-12-12T15:14:05.461Z,25
2018-12-12T15:15:13.537Z,20
2018-12-12T15:16:21.613Z,20
2018-12-12T15:17:29.749Z,20
2018-12-12T15:18:37.707Z,20
2018-12-12T15:19:45.734Z,15
2018-12-12T15:20:53.807Z,15
2018-12-12T15:22:01.855Z,15
2018-12-12T15:23:09.895Z,15
2018-12-12T15:24:17.955Z,15
2018-12-12T15:25:25.998Z,10
2018-12-12T15:26:34.069Z,10
2018-12-12T15:27:42.122Z,10
2018-12-12T15:28:50.174Z,10
2018-12-12T15:29:58.246Z,10
2018-12-12T15:31:06.312Z,5
2018-12-12T15:32:14.357Z,5
2018-12-12T15:33:22.389Z,5
2018-12-12T15:34:30.444Z,5
2018-12-12T15:35:38.490Z,5
2018-12-12T15:36:46.557Z,5
2018-12-12T15:37:54.596Z,5
2018-12-12T15:39:02.659Z,0
2018-12-12T15:40:10.703Z,0
2018-12-12T15:41:18.763Z,0
2018-12-12T15:42:26.814Z,0
2018-12-12T15:43:34.844Z,0
2018-12-12T15:44:42.911Z,0
2018-12-12T15:45:50.971Z,0
2018-12-12T15:46:59.020Z,0
2018-12-12T15:48:07.080Z,0
2018-12-12T15:49:15.100Z,0
2018-12-12T15:50:23.184Z,0
2018-12-12T15:51:31.241Z,0
2018-12-12T15:52:39.301Z,0
2018-12-12T15:53:47.345Z,0
2018-12-12T15:54:55.369Z,0
2018-12-12T15:56:03.446Z,0
2018-12-12T15:57:11.513Z,0
2018-12-12T15:58:19.564Z,0
2018-12-12T15:59:27.624Z,0
2018-12-12T16:00:35.662Z,0
2018-12-12T16:01:43.727Z,0
2018-12-12T16:02:51.762Z,0
2018-12-12T16:03:59.822Z,0
2018-12-12T16:05:07.870Z,0
2018-12-12T16:06:15.920Z,0
2018-12-12T16:07:23.968Z,0
2018-12-12T16:08:32.027Z,0
2018-12-12T16:09:40.072Z,0
2018-12-12T16:10:48.141Z,0
2018-12-12T16:11:56.180Z,0
2018-12-12T16:13:04.261Z,0
2018-12-12T16:14:12.290Z,0
2018-12-12T16:15:20.356Z,0
2018-12-12T16:16:28.397Z,0
2018-12-12T16:17:36.456Z,0
2018-12-12T16:18:44.507Z,0